Weather at Brown Field Municipal Airport

Public forecast

Using degrees Fahrenheit for public forecast. Weather courtesy of forecast.io.

Current aviation weather report (METAR) for Brown Field Municipal Airport

Retrieved 2020/10/30 15:53 UTC (13 minutes ago):

KSDM 301553Z 15005KT 9SM CLR 21/M01 A3002 RMK AO2 SLP160 T02061006

Closest aviation forecast (TAF) to Brown Field Municipal Airport

Closest forecast is General Abelardo L. Rodríguez International Airport, 1.9 nm (3.6 km) SSE. Retrieved 2020/10/30 12:23 UTC (4 hours ago):

TAF MMTJ 301116Z 3012/3118 35005KT 6SM HZ SKC TX26/3021Z TN13/3012Z TEMPO 3012/3015 3SM HZ SCT010 FM301800 30010KT P6SM SKC FM310300 33005KT 6SM HZ SKC TEMPO 3112/3115 3SM HZ